createdAt,value
2018-04-14T00:00:50.355Z,37.50
2018-04-14T00:01:50.340Z,32.40
2018-04-14T00:02:50.321Z,34.60
2018-04-14T00:03:50.308Z,34.60
2018-04-14T00:04:50.288Z,30.70
2018-04-14T00:05:50.276Z,40.50
2018-04-14T00:06:50.258Z,39.20
2018-04-14T00:07:50.241Z,37.70
2018-04-14T00:08:50.227Z,37.90
2018-04-14T00:09:50.210Z,33.10
2018-04-14T00:10:50.195Z,37.90
2018-04-14T00:11:50.179Z,38.80
2018-04-14T00:12:50.163Z,34.10
2018-04-14T00:13:50.144Z,38.00
2018-04-14T00:14:50.131Z,37.60
2018-04-14T00:15:50.115Z,40.00
2018-04-14T00:16:50.097Z,38.30
2018-04-14T00:17:50.081Z,34.50
2018-04-14T00:18:50.065Z,33.00
2018-04-14T00:19:50.051Z,40.20
2018-04-14T00:20:50.032Z,36.20
2018-04-14T00:21:50.018Z,41.40
2018-04-14T00:22:50.000Z,37.90
2018-04-14T00:23:49.988Z,34.70
2018-04-14T00:24:49.969Z,40.30
2018-04-14T00:25:49.953Z,40.20
2018-04-14T00:26:49.937Z,29.70
2018-04-14T00:27:49.925Z,39.30
2018-04-14T00:28:49.905Z,41.50
2018-04-14T00:29:49.889Z,35.70
2018-04-14T00:30:49.871Z,36.70
2018-04-14T00:31:49.857Z,33.40
2018-04-14T00:32:49.839Z,40.90
2018-04-14T00:33:49.824Z,34.10
2018-04-14T00:34:49.809Z,38.50
2018-04-14T00:35:49.796Z,32.40
2018-04-14T00:36:49.780Z,33.00
2018-04-14T00:37:49.761Z,38.20
2018-04-14T00:38:49.744Z,38.30
2018-04-14T00:39:49.728Z,35.30
2018-04-14T00:40:49.711Z,33.10
2018-04-14T00:41:49.698Z,36.80
2018-04-14T00:42:49.682Z,43.00
2018-04-14T00:43:49.663Z,31.40
2018-04-14T00:44:49.653Z,34.90
2018-04-14T00:45:49.630Z,33.10
2018-04-14T00:46:49.614Z,32.50
2018-04-14T00:47:49.598Z,44.20
2018-04-14T00:48:49.591Z,39.60
2018-04-14T00:49:49.566Z,43.10
2018-04-14T00:50:49.550Z,42.10
2018-04-14T00:51:49.533Z,40.10
2018-04-14T00:52:49.516Z,37.90
2018-04-14T00:53:49.503Z,37.90
2018-04-14T00:54:49.486Z,40.90
2018-04-14T00:55:49.470Z,41.20
2018-04-14T00:56:49.452Z,43.50
2018-04-14T00:57:49.435Z,37.90
2018-04-14T00:58:49.427Z,37.60
2018-04-14T00:59:49.403Z,34.20
2018-04-14T01:00:49.388Z,34.10
2018-04-14T01:01:49.373Z,39.10
2018-04-14T01:02:49.358Z,35.10
2018-04-14T01:03:49.341Z,41.30
2018-04-14T01:04:49.334Z,36.80
2018-04-14T01:05:49.305Z,38.10
2018-04-14T01:06:49.298Z,48.50
2018-04-14T01:07:49.275Z,42.70
2018-04-14T01:08:49.257Z,40.40
2018-04-14T01:09:49.243Z,43.70
2018-04-14T01:10:49.227Z,47.00
2018-04-14T01:11:49.213Z,43.80
2018-04-14T01:12:49.194Z,39.90
2018-04-14T01:13:49.180Z,45.10
2018-04-14T01:14:49.164Z,33.50
2018-04-14T01:15:49.145Z,42.10
2018-04-14T01:16:49.130Z,46.90
2018-04-14T01:17:49.112Z,45.00
2018-04-14T01:18:49.097Z,42.30
2018-04-14T01:19:49.083Z,38.90
2018-04-14T01:20:49.063Z,45.70
2018-04-14T01:21:49.047Z,43.80
2018-04-14T01:22:49.031Z,49.50
2018-04-14T01:23:49.020Z,48.20
2018-04-14T01:24:49.005Z,44.70
2018-04-14T01:25:48.992Z,50.10
2018-04-14T01:26:48.965Z,51.60
2018-04-14T01:27:48.953Z,43.40
2018-04-14T01:28:48.933Z,44.20
2018-04-14T01:29:48.922Z,46.20
2018-04-14T01:30:48.901Z,46.30
2018-04-14T01:31:48.884Z,47.50
2018-04-14T01:32:48.866Z,45.00
2018-04-14T01:33:48.851Z,51.70
2018-04-14T01:34:48.840Z,51.30
2018-04-14T01:35:48.819Z,51.70
2018-04-14T01:36:48.803Z,50.80
2018-04-14T01:37:48.787Z,53.20
2018-04-14T01:38:48.769Z,44.50
2018-04-14T01:39:48.752Z,49.30
2018-04-14T01:40:48.736Z,46.50
2018-04-14T01:41:48.719Z,53.60
2018-04-14T01:42:48.703Z,52.50
2018-04-14T01:43:48.686Z,45.60
2018-04-14T01:44:48.672Z,46.40
2018-04-14T01:45:48.654Z,53.20
2018-04-14T01:46:48.638Z,47.60
2018-04-14T01:47:48.620Z,51.20
2018-04-14T01:48:48.603Z,46.90
2018-04-14T01:49:48.590Z,52.80
2018-04-14T01:50:48.572Z,49.50
2018-04-14T01:51:48.556Z,50.70
2018-04-14T01:52:48.541Z,46.00
2018-04-14T01:53:48.522Z,48.10
2018-04-14T01:54:48.509Z,48.70
2018-04-14T01:55:48.493Z,47.40
2018-04-14T01:56:48.472Z,53.00
2018-04-14T01:57:48.453Z,47.60
2018-04-14T01:58:48.437Z,52.80
2018-04-14T01:59:48.423Z,45.90
2018-04-14T02:00:48.405Z,52.90
2018-04-14T02:01:48.388Z,49.60
2018-04-14T02:02:48.372Z,49.30
2018-04-14T02:03:48.356Z,46.90
2018-04-14T02:04:48.338Z,50.70
2018-04-14T02:05:48.322Z,52.20
2018-04-14T02:06:48.305Z,51.40
2018-04-14T02:07:48.289Z,46.20
2018-04-14T02:08:48.272Z,51.90
2018-04-14T02:09:48.255Z,57.50
2018-04-14T02:10:48.344Z,53.00
2018-04-14T02:11:48.225Z,49.50
2018-04-14T02:12:48.205Z,50.00
2018-04-14T02:13:48.190Z,52.30
2018-04-14T02:14:48.171Z,52.80
2018-04-14T02:15:48.156Z,60.30
2018-04-14T02:16:48.138Z,60.80
2018-04-14T02:17:48.122Z,51.90
2018-04-14T02:18:48.107Z,48.10
2018-04-14T02:19:48.089Z,46.10
2018-04-14T02:20:48.071Z,55.10
2018-04-14T02:21:48.060Z,57.40
2018-04-14T02:22:48.041Z,54.90
2018-04-14T02:23:48.022Z,56.00
2018-04-14T02:24:48.006Z,51.90
2018-04-14T02:25:47.989Z,55.40
2018-04-14T02:26:47.972Z,56.20
2018-04-14T02:27:47.958Z,50.30
2018-04-14T02:28:47.940Z,54.90
2018-04-14T02:29:47.923Z,57.50
2018-04-14T02:30:47.905Z,52.90
2018-04-14T02:31:47.890Z,51.40
2018-04-14T02:32:47.870Z,60.20
2018-04-14T02:33:47.854Z,55.50
2018-04-14T02:34:47.840Z,51.90
2018-04-14T02:35:47.821Z,61.30
2018-04-14T02:36:47.804Z,53.80
2018-04-14T02:37:47.791Z,54.90
2018-04-14T02:38:47.771Z,55.60
2018-04-14T02:39:47.754Z,53.60
2018-04-14T02:40:47.740Z,52.40
2018-04-14T02:41:47.722Z,60.80
2018-04-14T02:42:47.703Z,56.10
2018-04-14T02:43:47.686Z,61.30
2018-04-14T02:44:47.669Z,54.30
2018-04-14T02:45:47.653Z,52.20
2018-04-14T02:46:47.637Z,60.40
2018-04-14T02:47:47.621Z,58.30
2018-04-14T02:48:47.605Z,57.40
2018-04-14T02:49:47.584Z,62.50
2018-04-14T02:50:47.569Z,55.30
2018-04-14T02:51:47.555Z,60.20
2018-04-14T02:52:47.537Z,58.30
2018-04-14T02:53:47.523Z,58.60
2018-04-14T02:54:47.504Z,62.90
2018-04-14T02:55:47.485Z,58.40
2018-04-14T02:56:47.467Z,67.80
2018-04-14T02:57:47.450Z,57.30
2018-04-14T02:58:47.436Z,58.50
2018-04-14T02:59:47.421Z,64.10
2018-04-14T03:00:47.403Z,58.90
2018-04-14T03:01:47.386Z,61.00
2018-04-14T03:02:47.367Z,55.30
2018-04-14T03:03:47.350Z,63.40
2018-04-14T03:04:47.334Z,62.90
2018-04-14T03:05:47.317Z,58.00
2018-04-14T03:06:47.301Z,64.40
2018-04-14T03:07:47.299Z,57.90
2018-04-14T03:08:47.265Z,56.70
2018-04-14T03:09:47.250Z,65.30
2018-04-14T03:10:47.233Z,67.20
2018-04-14T03:11:47.217Z,60.20
2018-04-14T03:12:47.198Z,64.10
2018-04-14T03:13:47.183Z,68.50
2018-04-14T03:14:47.168Z,60.50
2018-04-14T03:15:47.151Z,61.00
2018-04-14T03:16:47.134Z,60.40
2018-04-14T03:17:47.115Z,62.90
2018-04-14T03:18:47.100Z,67.30
2018-04-14T03:19:47.083Z,68.50
2018-04-14T03:20:47.063Z,67.00
2018-04-14T03:21:47.049Z,64.90
2018-04-14T03:22:47.029Z,69.70
2018-04-14T03:23:47.018Z,65.80
2018-04-14T03:24:46.998Z,65.40
2018-04-14T03:25:46.986Z,70.10
2018-04-14T03:26:46.967Z,67.80
2018-04-14T03:27:46.949Z,65.40
2018-04-14T03:28:46.951Z,65.50
2018-04-14T03:29:46.914Z,68.60
2018-04-14T03:30:46.898Z,65.60
2018-04-14T03:31:46.882Z,63.40
2018-04-14T03:32:46.867Z,71.40
2018-04-14T03:33:46.849Z,68.20
2018-04-14T03:34:46.843Z,67.30
2018-04-14T03:35:46.815Z,73.60
2018-04-14T03:36:46.798Z,68.60
2018-04-14T03:37:46.782Z,71.40
2018-04-14T03:38:46.764Z,70.40
2018-04-14T03:39:46.750Z,70.40
2018-04-14T03:40:46.731Z,67.20
2018-04-14T03:41:46.713Z,63.50
2018-04-14T03:42:46.738Z,69.10
2018-04-14T03:43:46.680Z,77.90
2018-04-14T03:44:46.664Z,70.40
2018-04-14T03:45:46.648Z,81.10
2018-04-14T03:46:46.636Z,72.80
2018-04-14T03:47:46.615Z,71.90
2018-04-14T03:48:46.597Z,71.10
2018-04-14T03:49:46.582Z,68.90
2018-04-14T03:50:46.566Z,75.30
2018-04-14T03:51:46.546Z,77.10
2018-04-14T03:52:46.529Z,74.00
2018-04-14T03:53:46.513Z,74.60
2018-04-14T03:54:46.499Z,74.30
2018-04-14T03:55:46.480Z,76.70
2018-04-14T03:56:46.464Z,65.10
2018-04-14T03:57:46.447Z,74.30
2018-04-14T03:58:46.432Z,76.20
2018-04-14T03:59:46.415Z,71.10
2018-04-14T04:00:46.396Z,72.40
2018-04-14T04:01:46.381Z,70.80
2018-04-14T04:02:46.366Z,75.10
2018-04-14T04:03:46.348Z,73.30
2018-04-14T04:04:46.331Z,66.70
2018-04-14T04:05:46.316Z,69.50
2018-04-14T04:06:46.298Z,69.20
2018-04-14T04:07:46.284Z,77.70
2018-04-14T04:08:46.267Z,75.50
2018-04-14T04:09:46.249Z,72.60
2018-04-14T04:10:46.231Z,70.50
2018-04-14T04:11:46.217Z,68.90
2018-04-14T04:12:46.201Z,65.20
2018-04-14T04:13:46.181Z,62.70
2018-04-14T04:14:46.164Z,58.50
2018-04-14T04:15:46.147Z,62.10
2018-04-14T04:16:46.131Z,56.30
2018-04-14T04:17:46.115Z,62.60
2018-04-14T04:18:46.103Z,53.60
2018-04-14T04:19:46.083Z,60.40
2018-04-14T04:20:46.065Z,46.50
2018-04-14T04:21:46.049Z,52.00
2018-04-14T04:22:46.030Z,52.30
2018-04-14T04:23:46.016Z,47.80
2018-04-14T04:24:45.998Z,49.30
2018-04-14T04:25:45.983Z,51.60
2018-04-14T04:26:45.966Z,48.20
2018-04-14T04:27:45.949Z,46.90
2018-04-14T04:28:45.936Z,51.30
2018-04-14T04:29:45.916Z,42.30
2018-04-14T04:30:45.901Z,38.40
2018-04-14T04:31:45.887Z,41.50
2018-04-14T04:32:45.865Z,41.60
2018-04-14T04:33:45.849Z,40.50
2018-04-14T04:34:45.833Z,41.50
2018-04-14T04:35:45.815Z,42.40
2018-04-14T04:36:45.797Z,41.80
2018-04-14T04:37:45.784Z,47.40
2018-04-14T04:38:45.765Z,43.30
2018-04-14T04:39:45.747Z,41.50
2018-04-14T04:40:45.732Z,46.90
2018-04-14T04:41:45.717Z,42.50
2018-04-14T04:42:45.700Z,42.40
2018-04-14T04:43:45.681Z,40.70
2018-04-14T04:44:45.665Z,40.00
2018-04-14T04:45:45.647Z,38.70
2018-04-14T04:46:45.632Z,44.60
2018-04-14T04:47:45.622Z,40.30
2018-04-14T04:48:45.642Z,40.00
2018-04-14T04:49:45.580Z,39.70
2018-04-14T04:50:45.563Z,38.90
2018-04-14T04:51:45.545Z,39.60
2018-04-14T04:52:45.528Z,39.00
2018-04-14T04:53:45.513Z,43.00
2018-04-14T04:54:45.498Z,40.40
2018-04-14T04:55:45.483Z,41.20
2018-04-14T04:56:45.465Z,36.50
2018-04-14T04:57:45.444Z,35.30
2018-04-14T04:58:45.427Z,40.20
2018-04-14T04:59:45.410Z,38.80
2018-04-14T05:00:45.394Z,38.70
2018-04-14T05:01:45.379Z,39.30
2018-04-14T05:02:45.358Z,42.60
2018-04-14T05:03:45.342Z,43.80
2018-04-14T05:04:45.324Z,42.30
2018-04-14T05:05:45.316Z,38.10
2018-04-14T05:06:45.292Z,38.80
2018-04-14T05:07:45.274Z,41.80
2018-04-14T05:08:45.255Z,40.80
2018-04-14T05:09:45.243Z,39.10
2018-04-14T05:10:45.222Z,47.00
2018-04-14T05:11:45.204Z,46.20
2018-04-14T05:12:45.189Z,44.90
2018-04-14T05:13:45.171Z,43.80
2018-04-14T05:14:45.152Z,44.80
2018-04-14T05:15:45.141Z,47.40
2018-04-14T05:16:45.119Z,46.20
2018-04-14T05:17:45.103Z,44.50
2018-04-14T05:18:45.085Z,48.30
2018-04-14T05:19:45.071Z,53.30
2018-04-14T05:20:45.052Z,58.60
2018-04-14T05:21:45.031Z,55.80
2018-04-14T05:22:45.015Z,56.80
2018-04-14T05:23:44.999Z,52.20
2018-04-14T05:24:44.985Z,51.90
2018-04-14T05:25:44.964Z,56.50
2018-04-14T05:26:44.947Z,56.30
2018-04-14T05:27:44.936Z,56.80
2018-04-14T05:28:44.912Z,57.60
2018-04-14T05:29:44.895Z,56.90
2018-04-14T05:30:44.877Z,60.80
2018-04-14T05:31:44.863Z,65.70
2018-04-14T05:32:44.842Z,65.30
2018-04-14T05:33:44.825Z,67.80
2018-04-14T05:34:44.807Z,71.40
2018-04-14T05:35:44.799Z,66.90
2018-04-14T05:36:44.774Z,68.70
2018-04-14T05:37:44.756Z,63.10
2018-04-14T05:38:44.740Z,73.20
2018-04-14T05:39:44.726Z,79.90
2018-04-14T05:40:44.703Z,70.60
2018-04-14T05:41:44.709Z,68.40
2018-04-14T05:42:44.683Z,74.90
2018-04-14T05:43:44.656Z,76.00
2018-04-14T05:44:44.634Z,74.60
2018-04-14T05:45:44.621Z,82.40
2018-04-14T05:46:44.608Z,82.00
2018-04-14T05:47:44.588Z,69.90
2018-04-14T05:48:44.571Z,77.20
2018-04-14T05:49:44.559Z,76.50
2018-04-14T05:50:44.539Z,78.40
2018-04-14T05:51:44.515Z,76.20
2018-04-14T05:52:44.501Z,83.80
2018-04-14T05:53:44.480Z,73.80
2018-04-14T05:54:44.462Z,76.80
2018-04-14T05:55:44.447Z,73.20
2018-04-14T05:56:44.429Z,78.30
2018-04-14T05:57:44.412Z,80.30
2018-04-14T05:58:44.395Z,74.10
2018-04-14T05:59:44.378Z,72.40
2018-04-14T06:00:44.361Z,80.10
2018-04-14T06:01:44.343Z,78.20
2018-04-14T06:02:44.334Z,69.10
2018-04-14T06:03:44.315Z,75.30
2018-04-14T06:04:44.291Z,67.10
2018-04-14T06:05:44.274Z,70.60
2018-04-14T06:06:44.259Z,73.80
2018-04-14T06:07:44.240Z,76.30
2018-04-14T06:08:44.222Z,67.40
2018-04-14T06:09:44.205Z,63.90
2018-04-14T06:10:44.189Z,63.00
2018-04-14T06:11:44.172Z,69.10
2018-04-14T06:12:44.163Z,66.10
2018-04-14T06:13:44.139Z,65.50
2018-04-14T06:14:44.119Z,71.40
2018-04-14T06:15:44.104Z,65.80
2018-04-14T06:16:44.089Z,68.00
2018-04-14T06:17:44.066Z,63.20
2018-04-14T06:18:44.050Z,61.20
2018-04-14T06:19:44.033Z,67.20
2018-04-14T06:20:44.022Z,69.50
2018-04-14T06:21:43.997Z,65.40
2018-04-14T06:22:43.985Z,63.20
2018-04-14T06:23:43.964Z,74.90
2018-04-14T06:24:43.947Z,74.50
2018-04-14T06:25:43.929Z,65.10
2018-04-14T06:26:43.915Z,64.30
2018-04-14T06:27:43.896Z,66.80
2018-04-14T06:28:43.878Z,70.20
2018-04-14T06:29:43.862Z,77.90
2018-04-14T06:30:43.844Z,63.20
2018-04-14T06:31:43.837Z,56.60
2018-04-14T06:32:43.813Z,59.00
2018-04-14T06:33:43.798Z,63.90
2018-04-14T06:34:43.777Z,54.70
2018-04-14T06:35:43.761Z,57.00
2018-04-14T06:36:43.742Z,53.20
2018-04-14T06:37:43.730Z,53.90
2018-04-14T06:38:43.711Z,50.80
2018-04-14T06:39:43.693Z,57.10
2018-04-14T06:40:43.677Z,53.60
2018-04-14T06:41:43.661Z,52.50
2018-04-14T06:42:43.643Z,50.50
2018-04-14T06:43:43.627Z,53.90
2018-04-14T06:44:43.608Z,54.00
2018-04-14T06:45:43.601Z,47.70
2018-04-14T06:46:43.580Z,51.40
2018-04-14T06:47:43.569Z,45.20
2018-04-14T06:48:43.546Z,51.30
2018-04-14T06:49:43.526Z,51.50
2018-04-14T06:50:43.511Z,55.90
2018-04-14T06:51:43.499Z,63.60
2018-04-14T06:52:43.476Z,55.10
2018-04-14T06:53:43.463Z,52.20
2018-04-14T06:54:43.464Z,55.30
2018-04-14T06:55:43.438Z,57.60
2018-04-14T06:56:43.414Z,63.20
2018-04-14T06:57:43.401Z,57.90
2018-04-14T06:58:43.379Z,65.60
2018-04-14T06:59:43.363Z,68.40
2018-04-14T07:00:43.344Z,57.50
2018-04-14T07:01:43.328Z,68.60
2018-04-14T07:02:43.312Z,72.50
2018-04-14T07:03:43.296Z,68.70
2018-04-14T07:04:43.283Z,59.60
2018-04-14T07:05:43.266Z,77.80
2018-04-14T07:06:43.252Z,73.40
2018-04-14T07:07:43.233Z,77.80
2018-04-14T07:08:43.230Z,67.40
2018-04-14T07:09:43.202Z,64.20
2018-04-14T07:10:43.183Z,73.70
2018-04-14T07:11:43.168Z,77.30
2018-04-14T07:12:43.161Z,64.60
2018-04-14T07:13:43.138Z,68.10
2018-04-14T07:14:43.122Z,74.60
2018-04-14T07:15:43.106Z,72.90
2018-04-14T07:16:43.088Z,74.90
2018-04-14T07:17:43.075Z,66.70
2018-04-14T07:18:43.059Z,75.10
2018-04-14T07:19:43.044Z,71.50
2018-04-14T07:20:43.032Z,68.70
2018-04-14T07:21:43.013Z,74.90
2018-04-14T07:22:42.997Z,68.70
2018-04-14T07:23:42.985Z,71.50
2018-04-14T07:24:42.968Z,66.10
2018-04-14T07:25:42.951Z,72.20
2018-04-14T07:26:42.942Z,76.70
2018-04-14T07:27:42.925Z,78.70
2018-04-14T07:28:42.912Z,65.20
2018-04-14T07:29:42.893Z,74.70
2018-04-14T07:30:42.882Z,76.20
2018-04-14T07:31:42.866Z,69.90
2018-04-14T07:32:42.853Z,67.90
2018-04-14T07:33:42.836Z,69.90
2018-04-14T07:34:42.827Z,59.50
2018-04-14T07:35:42.810Z,70.40
2018-04-14T07:36:42.794Z,65.80
2018-04-14T07:37:42.779Z,62.20
2018-04-14T07:38:42.764Z,68.40
2018-04-14T07:39:42.750Z,62.10
2018-04-14T07:40:42.756Z,63.60
2018-04-14T07:41:42.724Z,60.20
2018-04-14T07:42:42.704Z,64.80
2018-04-14T07:43:42.692Z,61.10
2018-04-14T07:44:42.675Z,61.60
2018-04-14T07:45:42.661Z,66.10
2018-04-14T07:46:42.647Z,65.60
2018-04-14T07:47:42.634Z,59.80
2018-04-14T07:48:42.624Z,60.30
2018-04-14T07:49:42.606Z,70.30
2018-04-14T07:50:42.590Z,62.50
2018-04-14T07:51:42.624Z,64.70
2018-04-14T07:52:42.560Z,66.10
2018-04-14T07:53:42.546Z,61.50
2018-04-14T07:54:42.530Z,68.70
2018-04-14T07:55:42.523Z,59.50
2018-04-14T07:56:42.502Z,65.50
2018-04-14T07:57:42.496Z,63.50
2018-04-14T07:58:42.476Z,69.00
2018-04-14T07:59:42.462Z,66.70
2018-04-14T08:00:42.443Z,62.00
2018-04-14T08:01:42.434Z,65.00
2018-04-14T08:02:42.415Z,74.00
2018-04-14T08:03:42.401Z,65.80
2018-04-14T08:04:42.386Z,61.10
2018-04-14T08:05:42.374Z,61.70
2018-04-14T08:06:42.362Z,60.00
2018-04-14T08:07:42.350Z,62.00
2018-04-14T08:08:42.332Z,63.90
2018-04-14T08:09:42.318Z,64.40
2018-04-14T08:10:42.305Z,60.10
2018-04-14T08:11:42.306Z,61.60
2018-04-14T08:12:42.289Z,64.40
2018-04-14T08:13:42.269Z,64.40
2018-04-14T08:14:42.251Z,62.70
2018-04-14T08:15:42.245Z,62.70
2018-04-14T08:16:42.225Z,60.20
2018-04-14T08:17:42.210Z,62.30
2018-04-14T08:18:42.202Z,64.60
2018-04-14T08:19:42.184Z,65.70
2018-04-14T08:20:42.169Z,61.40
2018-04-14T08:21:42.160Z,60.30
2018-04-14T08:22:42.143Z,63.60
2018-04-14T08:23:42.132Z,66.20
2018-04-14T08:24:42.122Z,60.20
2018-04-14T08:25:42.118Z,60.00
2018-04-14T08:26:42.089Z,60.30
2018-04-14T08:27:42.073Z,62.70
2018-04-14T08:28:42.067Z,64.80
2018-04-14T08:29:42.044Z,58.50
2018-04-14T08:30:42.031Z,60.60
2018-04-14T08:31:42.020Z,59.90
2018-04-14T08:32:42.009Z,61.40
2018-04-14T08:33:41.994Z,60.10
2018-04-14T08:34:41.978Z,60.60
2018-04-14T08:35:41.958Z,61.60
2018-04-14T08:36:41.942Z,57.70
2018-04-14T08:37:41.929Z,60.60
2018-04-14T08:38:41.935Z,58.60
2018-04-14T08:39:41.900Z,60.30
2018-04-14T08:40:41.885Z,60.00
2018-04-14T08:41:41.874Z,62.10
2018-04-14T08:42:41.856Z,57.70
2018-04-14T08:43:41.850Z,59.00
2018-04-14T08:44:41.838Z,56.40
2018-04-14T08:45:41.820Z,57.50
2018-04-14T08:46:41.807Z,54.00
2018-04-14T08:47:41.790Z,55.50
2018-04-14T08:48:41.774Z,57.80
2018-04-14T08:49:41.758Z,53.80
2018-04-14T08:50:41.753Z,53.00
2018-04-14T08:51:41.734Z,52.50
2018-04-14T08:52:41.721Z,52.10
2018-04-14T08:53:41.709Z,51.30
2018-04-14T08:54:41.699Z,50.30
2018-04-14T08:55:41.685Z,51.90
2018-04-14T08:56:41.677Z,50.70
2018-04-14T08:57:41.659Z,51.50
2018-04-14T08:58:41.648Z,48.80
2018-04-14T08:59:41.641Z,50.50
2018-04-14T09:00:41.622Z,49.70
2018-04-14T09:01:41.611Z,50.50
2018-04-14T09:02:41.600Z,50.90
2018-04-14T09:03:41.592Z,51.20
2018-04-14T09:04:41.579Z,50.80
2018-04-14T09:05:41.567Z,49.20
2018-04-14T09:06:41.554Z,54.40
2018-04-14T09:07:41.544Z,50.20
2018-04-14T09:08:41.529Z,48.50
2018-04-14T09:09:41.517Z,49.40
2018-04-14T09:10:41.509Z,48.30
2018-04-14T09:11:41.493Z,48.70
2018-04-14T09:12:41.481Z,48.00
2018-04-14T09:13:41.474Z,46.90
2018-04-14T09:14:41.458Z,45.90
2018-04-14T09:15:41.445Z,43.70
2018-04-14T09:16:41.431Z,45.00
2018-04-14T09:17:41.419Z,45.20
2018-04-14T09:18:41.407Z,45.60
2018-04-14T09:19:41.397Z,46.40
2018-04-14T09:20:41.388Z,46.60
2018-04-14T09:21:41.369Z,47.00
2018-04-14T09:22:41.368Z,47.40
2018-04-14T09:23:41.353Z,46.90
2018-04-14T09:24:41.332Z,48.20
2018-04-14T09:25:41.331Z,47.30
2018-04-14T09:26:41.307Z,47.60
2018-04-14T09:27:41.298Z,46.00
2018-04-14T09:28:41.283Z,50.00
2018-04-14T09:29:41.272Z,48.70
2018-04-14T09:30:41.259Z,45.90
2018-04-14T09:31:41.244Z,46.20
2018-04-14T09:32:41.236Z,44.80
2018-04-14T09:33:41.219Z,44.60
2018-04-14T09:34:41.213Z,41.90
2018-04-14T09:35:41.198Z,42.20
2018-04-14T09:36:41.182Z,41.60
2018-04-14T09:37:41.172Z,43.50
2018-04-14T09:38:41.158Z,41.00
2018-04-14T09:39:41.147Z,41.90
2018-04-14T09:40:41.137Z,38.80
2018-04-14T09:41:41.137Z,38.90
2018-04-14T09:42:41.112Z,40.00
2018-04-14T09:43:41.096Z,39.90
2018-04-14T09:44:41.084Z,39.00
2018-04-14T09:45:41.071Z,36.90
2018-04-14T09:46:41.061Z,38.80
2018-04-14T09:47:41.057Z,38.20
2018-04-14T09:48:41.036Z,37.30
2018-04-14T09:49:41.022Z,38.10
2018-04-14T09:50:41.009Z,36.50
2018-04-14T09:51:40.997Z,35.60
2018-04-14T09:52:40.993Z,35.90
2018-04-14T09:53:40.976Z,34.90
2018-04-14T09:54:40.964Z,34.30
2018-04-14T09:55:40.959Z,34.80
2018-04-14T09:56:40.938Z,34.50
2018-04-14T09:57:40.926Z,34.90
2018-04-14T09:58:40.920Z,34.20
2018-04-14T09:59:40.905Z,33.00
2018-04-14T10:00:40.899Z,33.00
2018-04-14T10:01:40.882Z,33.40
2018-04-14T10:02:40.873Z,33.00
2018-04-14T10:03:40.858Z,32.40
2018-04-14T10:04:40.850Z,33.20
2018-04-14T10:05:40.836Z,32.00
2018-04-14T10:06:40.830Z,31.70
2018-04-14T10:07:40.817Z,30.80
2018-04-14T10:08:40.803Z,30.20
2018-04-14T10:09:40.790Z,30.20
2018-04-14T10:10:40.781Z,30.50
2018-04-14T10:11:40.771Z,28.70
2018-04-14T10:12:40.764Z,28.90
2018-04-14T10:13:40.767Z,29.70
2018-04-14T10:14:40.735Z,29.80
2018-04-14T10:15:40.724Z,28.20
2018-04-14T10:16:40.714Z,28.30
2018-04-14T10:17:40.702Z,27.10
2018-04-14T10:18:40.693Z,25.70
2018-04-14T10:19:40.679Z,25.90
2018-04-14T10:20:40.670Z,25.60
2018-04-14T10:21:40.658Z,27.30
2018-04-14T10:22:40.649Z,25.70
2018-04-14T10:23:40.633Z,25.00
2018-04-14T10:24:40.622Z,25.70
2018-04-14T10:25:40.611Z,25.80
2018-04-14T10:26:40.598Z,24.80
2018-04-14T10:27:40.586Z,25.10
2018-04-14T10:28:40.574Z,25.50
2018-04-14T10:29:40.568Z,27.10
2018-04-14T10:30:40.551Z,25.20
2018-04-14T10:31:40.538Z,25.30
2018-04-14T10:32:40.530Z,24.00
2018-04-14T10:33:40.517Z,24.40
2018-04-14T10:34:40.503Z,24.60
2018-04-14T10:35:40.490Z,25.50
2018-04-14T10:36:40.478Z,24.40
2018-04-14T10:37:40.486Z,24.60
2018-04-14T10:38:40.455Z,24.80
2018-04-14T10:39:40.443Z,25.80
2018-04-14T10:40:40.432Z,23.90
2018-04-14T10:41:40.418Z,24.70
2018-04-14T10:42:40.408Z,23.60
2018-04-14T10:43:40.399Z,24.20
2018-04-14T10:44:40.383Z,24.30
2018-04-14T10:45:40.374Z,23.60
2018-04-14T10:46:40.361Z,23.80
2018-04-14T10:47:40.349Z,24.50
2018-04-14T10:48:40.344Z,23.70
2018-04-14T10:49:40.326Z,23.00
2018-04-14T10:50:40.317Z,23.50
2018-04-14T10:51:40.306Z,23.20
2018-04-14T10:52:40.302Z,22.90
2018-04-14T10:53:40.281Z,23.00
2018-04-14T10:54:40.273Z,23.60
2018-04-14T10:55:40.262Z,23.40
2018-04-14T10:56:40.250Z,22.20
2018-04-14T10:57:40.240Z,22.90
2018-04-14T10:58:40.228Z,22.20
2018-04-14T10:59:40.228Z,21.90
2018-04-14T11:00:40.206Z,21.50
2018-04-14T11:01:40.199Z,21.30
2018-04-14T11:02:40.193Z,21.00
2018-04-14T11:03:40.177Z,21.70
2018-04-14T11:04:40.165Z,21.40
2018-04-14T11:05:40.157Z,22.30
2018-04-14T11:06:40.145Z,22.30
2018-04-14T11:07:40.140Z,21.20
2018-04-14T11:08:40.125Z,21.70
2018-04-14T11:09:40.113Z,22.70
2018-04-14T11:10:40.105Z,22.10
2018-04-14T11:11:40.092Z,23.10
2018-04-14T11:12:40.081Z,22.60
2018-04-14T11:13:40.071Z,22.80
2018-04-14T11:14:40.060Z,22.20
2018-04-14T11:15:40.050Z,22.40
2018-04-14T11:16:40.038Z,22.30
2018-04-14T11:17:40.030Z,22.90
2018-04-14T11:18:40.018Z,22.90
2018-04-14T11:19:40.005Z,22.60
2018-04-14T11:20:39.996Z,22.60
2018-04-14T11:21:39.988Z,22.40
2018-04-14T11:22:39.974Z,21.30
2018-04-14T11:23:39.962Z,22.30
2018-04-14T11:24:39.949Z,22.20
2018-04-14T11:25:39.946Z,22.50
2018-04-14T11:26:39.934Z,21.30
2018-04-14T11:27:39.924Z,20.90
2018-04-14T11:28:39.968Z,21.30
2018-04-14T11:29:39.902Z,20.70
2018-04-14T11:30:39.898Z,20.20
2018-04-14T11:31:39.896Z,20.90
2018-04-14T11:32:39.882Z,20.60
2018-04-14T11:33:39.868Z,21.20
2018-04-14T11:34:39.860Z,20.30
2018-04-14T11:35:39.852Z,20.60
2018-04-14T11:36:39.852Z,19.90
2018-04-14T11:37:39.837Z,20.00
2018-04-14T11:38:39.837Z,20.40
2018-04-14T11:39:39.821Z,19.70
2018-04-14T11:40:39.814Z,19.90
2018-04-14T11:41:39.804Z,20.20
2018-04-14T11:42:39.796Z,20.10
2018-04-14T11:43:39.799Z,19.70
2018-04-14T11:44:39.780Z,21.00
2018-04-14T11:45:39.775Z,19.30
2018-04-14T11:46:39.765Z,18.90
2018-04-14T11:47:39.759Z,18.60
2018-04-14T11:48:39.752Z,18.30
2018-04-14T11:49:39.745Z,17.60
2018-04-14T11:50:39.742Z,18.10
2018-04-14T11:51:39.732Z,18.40
2018-04-14T11:52:39.733Z,18.40
2018-04-14T11:53:39.722Z,19.00
2018-04-14T11:54:39.713Z,17.80
2018-04-14T11:55:39.717Z,18.70
2018-04-14T11:56:39.741Z,18.80
2018-04-14T11:57:39.698Z,18.70
2018-04-14T11:58:39.691Z,19.00
2018-04-14T11:59:39.689Z,17.90
2018-04-14T12:00:39.676Z,18.30
2018-04-14T12:01:39.688Z,18.00
2018-04-14T12:02:39.669Z,16.40
2018-04-14T12:03:39.721Z,17.20
2018-04-14T12:04:39.656Z,17.80
2018-04-14T12:05:39.651Z,19.00
2018-04-14T12:06:39.643Z,18.80
2018-04-14T12:07:39.638Z,18.90
2018-04-14T12:08:39.631Z,19.40
2018-04-14T12:09:39.637Z,19.60
2018-04-14T12:10:39.619Z,19.80
2018-04-14T12:11:39.616Z,20.30
2018-04-14T12:12:39.609Z,20.00
2018-04-14T12:13:39.599Z,19.50
2018-04-14T12:14:39.596Z,19.20
2018-04-14T12:15:39.598Z,19.40
2018-04-14T12:16:39.582Z,20.00
2018-04-14T12:17:39.576Z,19.20
2018-04-14T12:18:39.583Z,19.10
2018-04-14T12:19:39.556Z,19.40
2018-04-14T12:20:39.551Z,19.30
2018-04-14T12:21:39.541Z,19.90
2018-04-14T12:22:39.539Z,19.10
2018-04-14T12:23:39.531Z,18.30
2018-04-14T12:24:39.519Z,19.60
2018-04-14T12:25:39.516Z,19.00
2018-04-14T12:26:39.505Z,20.10
2018-04-14T12:27:39.496Z,19.00
2018-04-14T12:28:39.487Z,20.10
2018-04-14T12:29:39.477Z,21.10
2018-04-14T12:30:39.472Z,21.30
2018-04-14T12:31:39.472Z,23.50
2018-04-14T12:32:39.464Z,23.40
2018-04-14T12:33:39.442Z,24.10
2018-04-14T12:34:39.473Z,22.50
2018-04-14T12:35:39.429Z,22.70
2018-04-14T12:36:39.414Z,22.70
2018-04-14T12:37:39.404Z,22.80
2018-04-14T12:38:39.397Z,25.40
2018-04-14T12:39:39.395Z,24.30
2018-04-14T12:40:39.379Z,26.70
2018-04-14T12:41:39.371Z,27.10
2018-04-14T12:42:39.358Z,27.20
2018-04-14T12:43:39.346Z,29.10
2018-04-14T12:44:39.336Z,33.20
2018-04-14T12:45:39.328Z,43.40
2018-04-14T12:46:39.317Z,45.00
2018-04-14T12:47:39.304Z,56.30
2018-04-14T12:48:39.295Z,52.90
2018-04-14T12:49:39.293Z,54.10
2018-04-14T12:50:39.273Z,53.10
2018-04-14T12:51:39.267Z,52.90
2018-04-14T12:52:39.256Z,51.60